createdAt,value
2022-08-07T00:01:43.651Z,8.23
2022-08-07T00:04:24.786Z,8.45
2022-08-07T00:07:01.410Z,8.15
2022-08-07T00:09:35.833Z,8.20
2022-08-07T00:12:06.710Z,8.03
2022-08-07T00:14:44.223Z,8.28
2022-08-07T00:17:14.794Z,8.10
2022-08-07T00:20:01.561Z,8.68
2022-08-07T00:22:24.429Z,7.70
2022-08-07T00:24:59.984Z,7.65
2022-08-07T00:27:51.933Z,7.90
2022-08-07T00:30:26.423Z,8.20
2022-08-07T00:32:48.177Z,8.38
2022-08-07T00:35:23.846Z,8.95
2022-08-07T00:37:54.601Z,8.45
2022-08-07T00:40:39.859Z,7.95
2022-08-07T00:42:58.037Z,7.75
2022-08-07T00:45:28.954Z,8.58
2022-08-07T00:48:09.626Z,8.45
2022-08-07T00:50:46.256Z,8.43
2022-08-07T00:53:09.183Z,7.70
2022-08-07T00:56:03.325Z,8.35
2022-08-07T00:58:12.869Z,8.35
2022-08-07T01:00:53.823Z,8.63
2022-08-07T01:03:56.941Z,8.18
2022-08-07T01:05:59.763Z,8.20
2022-08-07T01:08:32.348Z,7.95
2022-08-07T01:12:05.005Z,8.58
2022-08-07T01:13:36.421Z,7.78
2022-08-07T01:16:11.809Z,9.55
2022-08-07T01:18:44.365Z,8.58
2022-08-07T01:21:22.756Z,7.70
2022-08-07T01:23:51.705Z,8.95
2022-08-07T01:26:26.081Z,8.80
2022-08-07T01:29:01.078Z,7.70
2022-08-07T01:31:41.532Z,7.65
2022-08-07T01:34:08.973Z,7.17
2022-08-07T01:36:57.575Z,8.45
2022-08-07T01:39:14.770Z,7.72
2022-08-07T01:42:07.403Z,8.18
2022-08-07T01:44:34.873Z,8.35
2022-08-07T01:48:16.632Z,8.08
2022-08-07T01:49:38.104Z,8.53
2022-08-07T01:52:13.285Z,7.75
2022-08-07T01:54:46.525Z,7.30
2022-08-07T01:57:28.939Z,7.45
2022-08-07T02:00:13.011Z,7.60
2022-08-07T02:03:12.483Z,7.30
2022-08-07T02:05:59.408Z,7.50
2022-08-07T02:08:24.585Z,7.97
2022-08-07T02:10:57.910Z,8.40
2022-08-07T02:13:57.697Z,8.80
2022-08-07T02:16:04.413Z,8.98
2022-08-07T02:18:46.830Z,8.83
2022-08-07T02:21:16.206Z,8.85
2022-08-07T02:23:49.315Z,8.65
2022-08-07T02:26:32.538Z,9.10
2022-08-07T02:28:50.929Z,8.65
2022-08-07T02:31:29.120Z,10.35
2022-08-07T02:34:03.241Z,9.33
2022-08-07T02:36:32.808Z,9.13
2022-08-07T02:39:00.731Z,9.38
2022-08-07T02:45:59.001Z,9.65
2022-08-07T02:48:28.943Z,9.40
2022-08-07T02:51:42.073Z,8.63
2022-08-07T02:57:48.932Z,7.97
2022-08-07T03:06:34.665Z,8.85
2022-08-07T03:15:47.905Z,10.08
2022-08-07T03:18:20.197Z,10.05
2022-08-07T03:20:52.540Z,9.68
2022-08-07T03:23:33.425Z,9.20
2022-08-07T03:25:58.395Z,9.38
2022-08-07T03:28:37.729Z,9.90
2022-08-07T03:31:43.308Z,9.10
2022-08-07T03:34:18.566Z,9.80
2022-08-07T03:36:51.886Z,9.83
2022-08-07T03:42:55.914Z,10.50
2022-08-07T03:45:30.719Z,9.93
2022-08-07T03:47:58.439Z,10.10
2022-08-07T03:50:32.211Z,9.98
2022-08-07T03:53:06.969Z,10.15
2022-08-07T03:56:04.433Z,10.55
2022-08-07T03:59:08.009Z,9.05
2022-08-07T04:01:07.485Z,10.15
2022-08-07T04:03:53.320Z,9.33
2022-08-07T04:06:37.830Z,10.13
2022-08-07T04:08:51.970Z,9.78
2022-08-07T04:12:27.984Z,10.05
2022-08-07T04:14:33.257Z,10.43
2022-08-07T04:16:58.216Z,9.78
2022-08-07T04:19:50.934Z,10.18
2022-08-07T04:22:07.801Z,10.58
2022-08-07T04:24:39.104Z,9.08
2022-08-07T04:27:20.615Z,8.70
2022-08-07T04:33:16.807Z,8.65
2022-08-07T04:35:54.454Z,8.08
2022-08-07T04:38:28.261Z,8.50
2022-08-07T04:41:06.200Z,9.03
2022-08-07T04:44:12.443Z,7.30
2022-08-07T04:47:10.274Z,7.28
2022-08-07T04:49:57.783Z,7.90
2022-08-07T04:52:51.281Z,8.13
2022-08-07T04:58:12.097Z,8.18
2022-08-07T05:01:33.852Z,8.28
2022-08-07T05:04:17.808Z,8.25
2022-08-07T05:24:11.313Z,8.15
2022-08-07T05:30:00.310Z,9.10
2022-08-07T05:32:39.077Z,8.33
2022-08-07T05:35:14.503Z,7.65
2022-08-07T05:37:46.841Z,9.38
2022-08-07T05:40:25.532Z,8.98
2022-08-07T05:43:00.910Z,7.62
2022-08-07T05:45:48.332Z,6.97
2022-08-07T05:48:18.224Z,7.12
2022-08-07T05:50:54.413Z,7.20
2022-08-07T05:54:12.900Z,7.95
2022-08-07T05:56:16.178Z,7.47
2022-08-07T05:58:58.878Z,7.45
2022-08-07T06:01:34.960Z,6.97
2022-08-07T06:04:06.606Z,7.85
2022-08-07T06:06:56.411Z,7.37
2022-08-07T06:12:31.809Z,7.80
2022-08-07T06:14:58.782Z,9.10
2022-08-07T06:17:53.658Z,9.38
2022-08-07T06:20:27.309Z,6.92
2022-08-07T06:23:24.677Z,9.05
2022-08-07T06:25:34.735Z,7.22
2022-08-07T06:28:16.630Z,7.47
2022-08-07T06:30:52.980Z,7.28
2022-08-07T06:33:19.737Z,7.60
2022-08-07T06:36:12.138Z,7.40
2022-08-07T06:38:22.345Z,7.72
2022-08-07T06:40:57.432Z,8.00
2022-08-07T06:43:27.523Z,7.15
2022-08-07T06:46:00.958Z,8.93
2022-08-07T06:48:29.835Z,15.30
2022-08-07T06:51:08.153Z,11.53
2022-08-07T06:55:29.876Z,8.03
2022-08-07T06:56:07.514Z,7.95
2022-08-07T07:00:12.870Z,7.90
2022-08-07T07:01:20.914Z,7.85
2022-08-07T07:03:57.238Z,8.15
2022-08-07T07:06:31.656Z,8.65
2022-08-07T07:09:24.209Z,8.08
2022-08-07T07:12:16.835Z,7.92
2022-08-07T07:14:50.511Z,8.35
2022-08-07T07:17:39.515Z,7.95
2022-08-07T07:20:17.501Z,8.20
2022-08-07T07:24:06.331Z,8.25
2022-08-07T07:26:32.620Z,8.20
2022-08-07T07:28:42.473Z,8.85
2022-08-07T07:30:49.277Z,7.85
2022-08-07T07:33:20.902Z,7.80
2022-08-07T07:36:04.450Z,7.92
2022-08-07T07:38:30.580Z,7.33
2022-08-07T07:41:04.079Z,8.78
2022-08-07T07:44:14.231Z,9.75
2022-08-07T07:46:36.989Z,11.68
2022-08-07T07:48:39.879Z,11.15
2022-08-07T07:51:12.745Z,13.38
2022-08-07T07:53:52.543Z,14.58
2022-08-07T07:56:18.499Z,16.15
2022-08-07T07:58:51.188Z,15.93
2022-08-07T08:02:02.743Z,16.90
2022-08-07T08:04:11.127Z,14.15
2022-08-07T08:07:59.790Z,14.25
2022-08-07T08:16:25.880Z,9.23
2022-08-07T08:20:17.445Z,8.75
2022-08-07T08:22:05.481Z,7.95
2022-08-07T08:25:04.866Z,7.80
2022-08-07T08:27:33.597Z,7.92
2022-08-07T08:30:19.471Z,8.53
2022-08-07T08:32:54.944Z,7.67
2022-08-07T08:35:39.102Z,8.40
2022-08-07T08:38:06.680Z,7.78
2022-08-07T08:40:59.092Z,8.38
2022-08-07T08:43:56.118Z,7.85
2022-08-07T08:46:40.113Z,8.20
2022-08-07T08:50:04.793Z,7.87
2022-08-07T08:55:54.608Z,8.15
2022-08-07T09:02:08.704Z,7.85
2022-08-07T09:04:51.458Z,7.60
2022-08-07T09:07:57.780Z,7.67
2022-08-07T09:10:25.342Z,7.97
2022-08-07T09:13:45.977Z,7.92
2022-08-07T09:16:30.129Z,6.67
2022-08-07T09:18:59.034Z,7.00
2022-08-07T09:21:57.821Z,7.40
2022-08-07T09:24:58.879Z,6.90
2022-08-07T09:27:30.329Z,7.42
2022-08-07T09:30:09.005Z,6.85
2022-08-07T09:32:56.527Z,6.67
2022-08-07T09:36:03.370Z,6.42
2022-08-07T09:38:21.098Z,6.22
2022-08-07T09:41:14.552Z,6.15
2022-08-07T09:44:10.222Z,6.97
2022-08-07T09:47:52.127Z,6.87
2022-08-07T09:50:19.310Z,6.33
2022-08-07T09:52:54.060Z,6.75
2022-08-07T09:56:02.875Z,6.47
2022-08-07T09:58:32.587Z,5.90
2022-08-07T10:04:53.427Z,7.47
2022-08-07T10:07:58.129Z,6.00
2022-08-07T10:14:00.166Z,6.45
2022-08-07T10:16:34.894Z,5.87
2022-08-07T10:19:11.284Z,6.78
2022-08-07T10:22:15.368Z,6.03
2022-08-07T10:25:07.006Z,6.00
2022-08-07T10:28:15.377Z,6.08
2022-08-07T10:30:58.526Z,7.55
2022-08-07T10:34:05.601Z,7.05
2022-08-07T10:36:42.775Z,6.47
2022-08-07T10:39:41.837Z,6.15
2022-08-07T10:42:21.036Z,6.20
2022-08-07T10:45:12.818Z,6.42
2022-08-07T10:47:55.858Z,6.72
2022-08-07T10:50:32.352Z,6.90
2022-08-07T10:56:43.700Z,7.55
2022-08-07T11:00:04.177Z,6.90
2022-08-07T11:06:21.809Z,6.83
2022-08-07T11:15:54.375Z,6.40
2022-08-07T11:18:51.023Z,6.47
2022-08-07T11:30:18.179Z,5.53
2022-08-07T11:31:37.288Z,6.08
2022-08-07T11:34:59.209Z,7.00
2022-08-07T11:38:28.181Z,6.60
2022-08-07T11:42:02.092Z,7.47
2022-08-07T11:45:53.068Z,7.08
2022-08-07T11:47:58.845Z,7.17
2022-08-07T11:50:56.384Z,7.47
2022-08-07T11:53:38.114Z,7.22
2022-08-07T11:56:36.890Z,7.05
2022-08-07T12:00:12.089Z,7.45
2022-08-07T12:02:33.715Z,7.53
2022-08-07T12:05:08.989Z,7.25
2022-08-07T12:07:53.660Z,6.95
2022-08-07T12:10:48.431Z,6.92
2022-08-07T12:13:47.760Z,7.00
2022-08-07T12:16:30.709Z,6.72
2022-08-07T12:19:21.250Z,6.22
2022-08-07T12:22:39.009Z,5.72
2022-08-07T12:26:21.817Z,6.15
2022-08-07T12:31:00.698Z,6.60
2022-08-07T12:34:00.846Z,5.97
2022-08-07T12:40:04.143Z,6.30
2022-08-07T12:42:13.642Z,5.67
2022-08-07T12:48:00.269Z,7.15
2022-08-07T12:50:55.613Z,6.15
2022-08-07T12:54:24.449Z,6.10
2022-08-07T12:59:54.625Z,5.90
2022-08-07T13:03:07.057Z,6.87
2022-08-07T13:06:03.087Z,6.80
2022-08-07T13:08:59.654Z,6.65
2022-08-07T13:15:23.641Z,5.87
2022-08-07T13:17:59.456Z,5.65
2022-08-07T13:20:44.563Z,5.87
2022-08-07T13:24:00.635Z,5.92
2022-08-07T13:26:10.566Z,5.45
2022-08-07T13:28:44.582Z,6.42
2022-08-07T13:31:22.307Z,10.30
2022-08-07T13:34:30.086Z,6.37
2022-08-07T13:36:48.597Z,6.65
2022-08-07T13:40:35.354Z,5.83
2022-08-07T13:42:40.031Z,6.20
2022-08-07T13:45:40.640Z,5.90
2022-08-07T13:48:06.149Z,5.70
2022-08-07T13:50:32.842Z,5.87
2022-08-07T13:52:54.029Z,6.00
2022-08-07T13:55:26.264Z,5.78
2022-08-07T13:58:31.352Z,5.17
2022-08-07T14:01:08.815Z,5.92
2022-08-07T14:04:07.329Z,6.30
2022-08-07T14:06:08.645Z,5.62
2022-08-07T14:08:46.153Z,5.40
2022-08-07T14:11:21.603Z,5.30
2022-08-07T14:13:58.151Z,5.78
2022-08-07T14:16:41.394Z,5.87
2022-08-07T14:20:39.922Z,6.20
2022-08-07T14:22:12.551Z,7.08
2022-08-07T14:24:43.005Z,5.95
2022-08-07T14:28:09.881Z,6.62
2022-08-07T14:30:05.288Z,6.53
2022-08-07T14:32:26.893Z,6.35
2022-08-07T14:35:04.434Z,6.35
2022-08-07T14:37:39.236Z,6.20
2022-08-07T14:41:34.177Z,6.45
2022-08-07T14:43:57.699Z,7.08
2022-08-07T14:46:03.978Z,7.12
2022-08-07T14:49:17.318Z,7.17
2022-08-07T14:52:04.679Z,6.42
2022-08-07T14:54:31.630Z,6.95
2022-08-07T14:56:56.724Z,6.75
2022-08-07T15:00:05.215Z,7.00
2022-08-07T15:02:32.119Z,6.97
2022-08-07T15:04:53.199Z,7.25
2022-08-07T15:10:12.115Z,7.42
2022-08-07T15:16:10.872Z,7.45
2022-08-07T15:18:53.122Z,7.05
2022-08-07T15:28:02.068Z,6.78
2022-08-07T15:33:04.134Z,6.50
2022-08-07T15:38:51.711Z,6.03
2022-08-07T15:44:03.948Z,6.47
2022-08-07T15:46:49.992Z,6.40
2022-08-07T15:49:17.615Z,6.15
2022-08-07T15:54:20.687Z,6.28
2022-08-07T15:56:52.366Z,7.20
2022-08-07T15:59:39.762Z,6.75
2022-08-07T16:02:02.248Z,7.87
2022-08-07T16:04:32.245Z,7.28
2022-08-07T16:07:04.778Z,6.83
2022-08-07T16:09:45.672Z,6.80
2022-08-07T16:12:38.946Z,7.05
2022-08-07T16:15:55.578Z,6.53
2022-08-07T16:18:50.206Z,7.22
2022-08-07T16:22:02.303Z,6.72
2022-08-07T16:24:09.254Z,6.55
2022-08-07T16:27:17.931Z,6.83
2022-08-07T16:30:11.592Z,6.83
2022-08-07T16:32:32.988Z,7.42
2022-08-07T16:35:03.660Z,8.00
2022-08-07T16:38:05.811Z,7.05
2022-08-07T16:41:01.602Z,7.10
2022-08-07T16:44:06.046Z,7.08
2022-08-07T16:50:27.291Z,7.10
2022-08-07T16:52:01.582Z,7.65
2022-08-07T16:54:33.033Z,8.23
2022-08-07T16:58:01.063Z,8.73
2022-08-07T17:00:15.125Z,8.68
2022-08-07T17:03:06.074Z,11.12
2022-08-07T17:06:30.245Z,13.10
2022-08-07T17:09:10.448Z,10.98
2022-08-07T17:12:05.170Z,8.50
2022-08-07T17:14:22.245Z,7.97
2022-08-07T17:16:55.644Z,7.42
2022-08-07T17:20:03.497Z,6.45
2022-08-07T17:22:36.626Z,6.85
2022-08-07T17:24:56.496Z,6.87
2022-08-07T17:27:51.078Z,7.60
2022-08-07T17:31:00.769Z,6.62
2022-08-07T17:34:09.428Z,7.05
2022-08-07T17:39:17.139Z,9.28
2022-08-07T17:42:26.064Z,7.70
2022-08-07T17:45:04.754Z,7.62
2022-08-07T17:47:54.181Z,7.85
2022-08-07T17:54:53.620Z,8.40
2022-08-07T17:57:00.232Z,7.87
2022-08-07T17:59:39.664Z,8.43
2022-08-07T18:02:23.596Z,7.10
2022-08-07T18:04:55.544Z,7.40
2022-08-07T18:07:36.230Z,8.20
2022-08-07T18:10:32.754Z,7.80
2022-08-07T18:13:09.883Z,8.20
2022-08-07T18:15:53.525Z,8.60
2022-08-07T18:18:45.130Z,9.83
2022-08-07T18:21:42.131Z,8.45
2022-08-07T18:23:50.789Z,8.33
2022-08-07T18:26:20.975Z,8.90
2022-08-07T18:30:08.246Z,8.30
2022-08-07T18:31:59.402Z,9.00
2022-08-07T18:35:07.975Z,8.25
2022-08-07T18:38:59.262Z,7.90
2022-08-07T18:44:00.252Z,9.60
2022-08-07T18:46:36.911Z,8.98
2022-08-07T18:55:43.136Z,9.73
2022-08-07T19:02:18.092Z,8.93
2022-08-07T19:05:09.819Z,10.58
2022-08-07T19:07:51.973Z,8.35
2022-08-07T19:10:51.835Z,8.63
2022-08-07T19:13:34.047Z,9.90
2022-08-07T19:17:04.781Z,8.30
2022-08-07T19:19:36.773Z,9.43
2022-08-07T19:22:18.626Z,7.65
2022-08-07T19:24:55.988Z,8.10
2022-08-07T19:28:29.492Z,9.10
2022-08-07T19:31:00.841Z,8.63
2022-08-07T19:32:44.575Z,8.93
2022-08-07T19:35:12.175Z,8.25
2022-08-07T19:37:55.123Z,8.28
2022-08-07T19:40:30.769Z,8.58
2022-08-07T19:43:05.770Z,8.20
2022-08-07T19:46:07.874Z,8.35
2022-08-07T19:51:51.163Z,7.62
2022-08-07T19:54:34.266Z,8.15
2022-08-07T19:57:52.348Z,8.85
2022-08-07T19:59:41.169Z,8.55
2022-08-07T20:02:12.357Z,9.03
2022-08-07T20:04:52.046Z,9.00
2022-08-07T20:07:46.015Z,8.90
2022-08-07T20:10:35.745Z,8.13
2022-08-07T20:13:05.904Z,9.28
2022-08-07T20:15:58.449Z,8.43
2022-08-07T20:18:36.857Z,8.25
2022-08-07T20:21:21.103Z,9.45
2022-08-07T20:23:58.015Z,9.43
2022-08-07T20:26:45.141Z,10.18
2022-08-07T20:29:17.074Z,9.58
2022-08-07T20:34:51.362Z,9.83
2022-08-07T20:37:18.762Z,8.88
2022-08-07T20:40:02.634Z,9.13
2022-08-07T20:42:33.738Z,10.48
2022-08-07T20:45:32.197Z,11.38
2022-08-07T20:47:56.852Z,9.63
2022-08-07T20:50:26.847Z,9.13
2022-08-07T20:53:01.721Z,10.08
2022-08-07T20:55:37.150Z,9.05
2022-08-07T21:01:09.077Z,9.15
2022-08-07T21:04:07.199Z,10.30
2022-08-07T21:06:26.046Z,9.35
2022-08-07T21:08:59.442Z,8.75
2022-08-07T21:11:49.986Z,9.35
2022-08-07T21:14:33.643Z,9.28
2022-08-07T21:18:00.385Z,8.93
2022-08-07T21:19:51.483Z,9.18
2022-08-07T21:22:14.801Z,8.60
2022-08-07T21:24:49.635Z,8.60
2022-08-07T21:27:39.803Z,8.40
2022-08-07T21:30:10.931Z,8.73
2022-08-07T21:33:00.607Z,9.15
2022-08-07T21:36:05.718Z,9.48
2022-08-07T21:38:29.000Z,9.60
2022-08-07T21:41:08.196Z,9.60
2022-08-07T21:43:56.332Z,9.53
2022-08-07T21:46:25.278Z,9.55
2022-08-07T21:49:25.747Z,9.43
2022-08-07T21:52:13.632Z,10.43
2022-08-07T21:54:50.043Z,9.83
2022-08-07T21:57:51.828Z,9.93
2022-08-07T22:00:25.703Z,9.68
2022-08-07T22:03:03.620Z,9.53
2022-08-07T22:05:44.210Z,9.68
2022-08-07T22:08:26.693Z,10.72
2022-08-07T22:11:01.910Z,10.40
2022-08-07T22:13:51.283Z,9.90
2022-08-07T22:21:02.530Z,10.20
2022-08-07T22:22:44.747Z,10.08
2022-08-07T22:25:43.087Z,10.13
2022-08-07T22:28:35.252Z,9.73
2022-08-07T22:31:45.263Z,10.08
2022-08-07T22:33:57.133Z,9.73
2022-08-07T22:36:52.714Z,9.88
2022-08-07T22:39:29.460Z,10.70
2022-08-07T22:42:32.766Z,10.10
2022-08-07T22:45:10.949Z,9.78
2022-08-07T22:47:49.280Z,10.63
2022-08-07T22:50:41.820Z,11.10
2022-08-07T22:54:06.276Z,10.58
2022-08-07T22:56:15.846Z,11.48
2022-08-07T22:59:07.682Z,11.65
2022-08-07T23:01:51.478Z,11.88
2022-08-07T23:04:35.496Z,11.43
2022-08-07T23:07:40.326Z,12.13
2022-08-07T23:10:04.785Z,11.90
2022-08-07T23:12:35.669Z,11.68
2022-08-07T23:16:05.857Z,11.95
2022-08-07T23:18:32.362Z,10.53
2022-08-07T23:21:36.782Z,11.30
2022-08-07T23:24:28.116Z,9.98
2022-08-07T23:27:33.668Z,11.45
2022-08-07T23:30:38.748Z,11.75
2022-08-07T23:34:23.416Z,12.07
2022-08-07T23:35:42.550Z,11.75
2022-08-07T23:38:42.440Z,12.03
2022-08-07T23:41:33.494Z,12.10
2022-08-07T23:44:29.747Z,12.53
2022-08-07T23:47:19.955Z,12.18
2022-08-07T23:50:11.931Z,12.45
2022-08-07T23:53:16.613Z,12.63
2022-08-07T23:55:52.464Z,12.53
2022-08-07T23:58:25.466Z,11.78
